createdAt,value
2022-09-09T00:00:26.776Z,99215.91
2022-09-09T00:02:29.866Z,99222.97
2022-09-09T00:04:35.839Z,99225.88
2022-09-09T00:06:56.632Z,99244.13
2022-09-09T00:09:18.674Z,99240.91
2022-09-09T00:11:31.576Z,99245.34
2022-09-09T00:13:37.822Z,99253.28
2022-09-09T00:15:47.804Z,99261.53
2022-09-09T00:18:03.103Z,99259.63
2022-09-09T00:20:28.277Z,99274.75
2022-09-09T00:22:33.354Z,99284.56
2022-09-09T00:24:46.719Z,99314.81
2022-09-09T00:26:54.525Z,99319.53
2022-09-09T00:29:04.886Z,99323.13
2022-09-09T00:31:26.050Z,99345.47
2022-09-09T00:33:28.767Z,99369.03
2022-09-09T00:35:35.810Z,99387.91
2022-09-09T00:37:41.303Z,99427.28
2022-09-09T00:39:48.584Z,99437.88
2022-09-09T00:42:10.533Z,99429.09
2022-09-09T00:44:36.292Z,99429.22
2022-09-09T00:47:16.410Z,99420.50
2022-09-09T00:49:33.451Z,99410.38
2022-09-09T00:52:05.878Z,99415.03
2022-09-09T00:54:41.856Z,99425.75
2022-09-09T00:57:05.007Z,99427.06
2022-09-09T00:59:07.114Z,99427.09
2022-09-09T01:01:14.577Z,99431.66
2022-09-09T01:03:38.600Z,99436.78
2022-09-09T01:06:07.879Z,99437.63
2022-09-09T01:08:34.736Z,99434.25
2022-09-09T01:10:50.503Z,99424.84
2022-09-09T01:12:57.077Z,99409.81
2022-09-09T01:15:23.200Z,99408.41
2022-09-09T01:17:33.820Z,99416.03
2022-09-09T01:19:52.830Z,99408.72
2022-09-09T01:22:24.713Z,99403.66
2022-09-09T01:24:36.966Z,99406.97
2022-09-09T01:27:10.564Z,99417.06
2022-09-09T01:29:16.713Z,99419.38
2022-09-09T01:31:33.718Z,99414.72
2022-09-09T01:33:36.002Z,99411.13
2022-09-09T01:35:55.695Z,99420.94
2022-09-09T01:38:00.861Z,99418.03
2022-09-09T01:40:04.086Z,99413.56
2022-09-09T01:42:10.564Z,99405.03
2022-09-09T01:44:14.041Z,99409.34
2022-09-09T01:46:23.600Z,99404.41
2022-09-09T01:48:27.557Z,99393.28
2022-09-09T01:50:38.491Z,99380.50
2022-09-09T01:52:43.033Z,99381.25
2022-09-09T01:54:48.510Z,99385.41
2022-09-09T01:57:13.401Z,99384.91
2022-09-09T01:59:26.292Z,99380.91
2022-09-09T02:01:35.238Z,99393.75
2022-09-09T02:03:37.669Z,99396.63
2022-09-09T02:06:04.779Z,99422.13
2022-09-09T02:08:14.709Z,99423.81
2022-09-09T02:10:35.503Z,99418.16
2022-09-09T02:12:52.457Z,99412.56
2022-09-09T02:15:05.095Z,99422.38
2022-09-09T02:17:24.561Z,99421.69
2022-09-09T02:19:47.507Z,99408.38
2022-09-09T02:22:02.332Z,99418.06
2022-09-09T02:24:11.499Z,99414.00
2022-09-09T02:26:24.521Z,99412.13
2022-09-09T02:28:36.407Z,99409.81
2022-09-09T02:30:40.955Z,99408.53
2022-09-09T02:32:46.018Z,99398.84
2022-09-09T02:34:55.281Z,99396.41
2022-09-09T02:37:00.995Z,99383.56
2022-09-09T02:39:05.801Z,99382.41
2022-09-09T02:41:10.410Z,99366.69
2022-09-09T02:43:17.548Z,99351.34
2022-09-09T02:45:26.194Z,99339.25
2022-09-09T02:47:40.069Z,99352.06
2022-09-09T02:50:14.245Z,99343.84
2022-09-09T02:52:25.096Z,99339.25
2022-09-09T02:54:33.098Z,99331.59
2022-09-09T02:56:45.229Z,99333.22
2022-09-09T02:58:48.589Z,99332.63
2022-09-09T03:00:52.461Z,99341.00
2022-09-09T03:02:55.739Z,99358.19
2022-09-09T03:04:58.050Z,99361.94
2022-09-09T03:07:00.757Z,99365.53
2022-09-09T03:09:03.953Z,99376.34
2022-09-09T03:11:06.035Z,99382.53
2022-09-09T03:13:12.402Z,99390.06
2022-09-09T03:15:16.602Z,99390.91
2022-09-09T03:17:19.243Z,99395.38
2022-09-09T03:19:26.777Z,99381.66
2022-09-09T03:21:28.872Z,99372.88
2022-09-09T03:23:31.029Z,99376.16
2022-09-09T03:25:36.845Z,99373.72
2022-09-09T03:27:38.755Z,99367.47
2022-09-09T03:29:40.631Z,99362.94
2022-09-09T03:31:47.452Z,99352.53
2022-09-09T03:33:54.871Z,99360.41
2022-09-09T03:35:58.616Z,99346.03
2022-09-09T03:38:01.837Z,99346.03
2022-09-09T03:40:12.977Z,99343.59
2022-09-09T03:42:19.899Z,99339.13
2022-09-09T03:44:25.396Z,99338.28
2022-09-09T03:46:27.940Z,99344.31
2022-09-09T03:48:30.852Z,99344.31
2022-09-09T03:50:34.408Z,99343.75
2022-09-09T03:52:41.892Z,99334.38
2022-09-09T03:54:49.581Z,99335.66
2022-09-09T03:56:51.820Z,99325.59
2022-09-09T03:58:54.581Z,99324.13
2022-09-09T04:01:03.620Z,99328.16
2022-09-09T04:03:06.879Z,99328.16
2022-09-09T04:05:09.376Z,99323.41
2022-09-09T04:07:13.067Z,99316.03
2022-09-09T04:09:16.506Z,99318.06
2022-09-09T04:11:19.174Z,99323.13
2022-09-09T04:13:23.905Z,99326.44
2022-09-09T04:15:26.013Z,99305.81
2022-09-09T04:17:28.005Z,99304.94
2022-09-09T04:19:30.042Z,99305.25
2022-09-09T04:21:32.689Z,99303.66
2022-09-09T04:23:38.119Z,99297.72
2022-09-09T04:25:48.963Z,99295.16
2022-09-09T04:27:58.379Z,99292.53
2022-09-09T04:30:03.483Z,99290.22
2022-09-09T04:32:07.855Z,99287.34
2022-09-09T04:34:14.874Z,99301.34
2022-09-09T04:36:17.402Z,99299.16
2022-09-09T04:38:20.432Z,99312.63
2022-09-09T04:40:23.510Z,99301.94
2022-09-09T04:42:29.462Z,99306.41
2022-09-09T04:44:31.786Z,99306.25
2022-09-09T04:46:35.583Z,99308.69
2022-09-09T04:48:38.257Z,99303.53
2022-09-09T04:50:42.310Z,99302.00
2022-09-09T04:52:47.294Z,99292.22
2022-09-09T04:54:49.561Z,99295.56
2022-09-09T04:56:52.168Z,99296.72
2022-09-09T04:58:55.532Z,99297.41
2022-09-09T05:01:05.809Z,99291.78
2022-09-09T05:03:09.459Z,99287.47
2022-09-09T05:05:12.419Z,99291.69
2022-09-09T05:07:15.864Z,99287.03
2022-09-09T05:09:18.335Z,99288.50
2022-09-09T05:11:29.890Z,99289.66
2022-09-09T05:13:52.828Z,99287.19
2022-09-09T05:15:56.393Z,99290.78
2022-09-09T05:18:00.877Z,99289.19
2022-09-09T05:20:09.535Z,99291.41
2022-09-09T05:22:13.184Z,99287.94
2022-09-09T05:24:24.411Z,99286.31
2022-09-09T05:26:30.587Z,99283.31
2022-09-09T05:28:36.534Z,99283.91
2022-09-09T05:30:39.402Z,99287.09
2022-09-09T05:32:44.719Z,99291.41
2022-09-09T05:34:48.398Z,99291.25
2022-09-09T05:36:51.254Z,99290.69
2022-09-09T05:38:56.233Z,99295.44
2022-09-09T05:41:01.257Z,99299.03
2022-09-09T05:43:04.124Z,99309.88
2022-09-09T05:45:08.967Z,99302.63
2022-09-09T05:47:11.373Z,99303.66
2022-09-09T05:49:13.821Z,99310.56
2022-09-09T05:51:25.755Z,99311.59
2022-09-09T05:53:33.374Z,99296.59
2022-09-09T05:55:35.998Z,99308.56
2022-09-09T05:57:40.503Z,99301.34
2022-09-09T05:59:43.673Z,99291.97
2022-09-09T06:01:49.485Z,99294.13
2022-09-09T06:04:06.664Z,99290.81
2022-09-09T06:06:15.043Z,99286.63
2022-09-09T06:08:17.724Z,99298.44
2022-09-09T06:10:20.426Z,99295.69
2022-09-09T06:12:22.657Z,99297.72
2022-09-09T06:14:25.370Z,99294.13
2022-09-09T06:16:31.052Z,99292.66
2022-09-09T06:18:33.674Z,99294.41
2022-09-09T06:20:39.271Z,99304.78
2022-09-09T06:22:42.355Z,99306.06
2022-09-09T06:24:46.127Z,99306.34
2022-09-09T06:26:48.232Z,99304.63
2022-09-09T06:28:59.148Z,99307.81
2022-09-09T06:31:06.905Z,99310.25
2022-09-09T06:33:10.423Z,99305.47
2022-09-09T06:35:12.893Z,99302.28
2022-09-09T06:37:15.374Z,99299.97
2022-09-09T06:39:22.729Z,99304.84
2022-09-09T06:41:28.132Z,99305.53
2022-09-09T06:43:31.288Z,99302.03
2022-09-09T06:45:37.810Z,99309.25
2022-09-09T06:47:40.185Z,99314.91
2022-09-09T06:49:45.490Z,99313.56
2022-09-09T06:51:50.653Z,99320.53
2022-09-09T06:53:55.664Z,99315.66
2022-09-09T06:55:59.709Z,99319.81
2022-09-09T06:58:02.948Z,99313.16
2022-09-09T07:00:06.035Z,99312.59
2022-09-09T07:02:09.626Z,99320.22
2022-09-09T07:04:12.332Z,99325.13
2022-09-09T07:06:18.714Z,99323.38
2022-09-09T07:08:21.764Z,99332.03
2022-09-09T07:10:26.965Z,99326.94
2022-09-09T07:12:29.700Z,99333.44
2022-09-09T07:14:37.313Z,99337.34
2022-09-09T07:16:46.801Z,99339.91
2022-09-09T07:18:51.727Z,99339.47
2022-09-09T07:20:56.470Z,99344.38
2022-09-09T07:23:00.357Z,99343.97
2022-09-09T07:25:03.391Z,99344.38
2022-09-09T07:27:08.201Z,99335.69
2022-09-09T07:29:18.511Z,99339.00
2022-09-09T07:31:31.777Z,99338.16
2022-09-09T07:33:36.482Z,99342.16
2022-09-09T07:35:39.255Z,99341.00
2022-09-09T07:37:42.411Z,99348.59
2022-09-09T07:39:45.217Z,99344.88
2022-09-09T07:41:50.281Z,99345.94
2022-09-09T07:43:55.675Z,99351.00
2022-09-09T07:46:01.767Z,99352.41
2022-09-09T07:48:05.061Z,99355.56
2022-09-09T07:50:07.827Z,99347.16
2022-09-09T07:52:10.165Z,99348.91
2022-09-09T07:54:17.337Z,99353.81
2022-09-09T07:56:23.686Z,99353.91
2022-09-09T07:58:26.801Z,99354.47
2022-09-09T08:00:29.757Z,99353.00
2022-09-09T08:02:33.679Z,99357.16
2022-09-09T08:04:36.758Z,99361.00
2022-09-09T08:06:41.603Z,99360.59
2022-09-09T08:08:46.352Z,99363.50
2022-09-09T08:10:48.558Z,99359.47
2022-09-09T08:13:07.959Z,99365.34
2022-09-09T08:15:13.888Z,99350.75
2022-09-09T08:17:16.253Z,99351.63
2022-09-09T08:19:19.145Z,99355.66
2022-09-09T08:21:25.134Z,99363.31
2022-09-09T08:23:27.879Z,99355.28
2022-09-09T08:25:30.181Z,99363.59
2022-09-09T08:27:33.409Z,99354.22
2022-09-09T08:29:35.790Z,99360.84
2022-09-09T08:31:41.319Z,99361.56
2022-09-09T08:33:46.645Z,99364.34
2022-09-09T08:35:52.265Z,99364.34
2022-09-09T08:37:56.638Z,99363.00
2022-09-09T08:40:00.368Z,99363.75
2022-09-09T08:42:06.124Z,99365.31
2022-09-09T08:44:32.533Z,99366.50
2022-09-09T08:46:49.681Z,99371.88
2022-09-09T08:48:57.890Z,99368.75
2022-09-09T08:51:03.246Z,99374.97
2022-09-09T08:53:09.275Z,99374.47
2022-09-09T08:55:37.915Z,99372.38
2022-09-09T08:57:40.451Z,99369.97
2022-09-09T08:59:42.745Z,99372.56
2022-09-09T09:01:57.362Z,99379.47
2022-09-09T09:04:24.176Z,99376.38
2022-09-09T09:06:37.477Z,99383.09
2022-09-09T09:09:05.918Z,99382.25
2022-09-09T09:11:08.611Z,99381.19
2022-09-09T09:13:23.636Z,99378.97
2022-09-09T09:15:32.826Z,99382.75
2022-09-09T09:17:38.698Z,99379.97
2022-09-09T09:19:44.409Z,99384.97
2022-09-09T09:22:11.464Z,99390.13
2022-09-09T09:24:21.500Z,99387.22
2022-09-09T09:26:31.856Z,99398.94
2022-09-09T09:28:35.485Z,99391.00
2022-09-09T09:31:02.686Z,99390.31
2022-09-09T09:33:16.258Z,99393.25
2022-09-09T09:35:18.782Z,99385.66
2022-09-09T09:37:30.565Z,99387.38
2022-09-09T09:42:21.606Z,99394.59
2022-09-09T09:44:33.789Z,99399.41
2022-09-09T09:46:42.236Z,99397.19
2022-09-09T09:48:59.093Z,99400.56
2022-09-09T09:51:16.723Z,99390.38
2022-09-09T09:53:32.649Z,99384.16
2022-09-09T09:55:36.705Z,99395.72
2022-09-09T09:57:39.595Z,99397.63
2022-09-09T09:59:46.883Z,99393.13
2022-09-09T10:02:22.197Z,99406.41
2022-09-09T10:04:30.685Z,99398.66
2022-09-09T10:06:38.658Z,99406.06
2022-09-09T10:08:48.320Z,99405.34
2022-09-09T10:11:05.597Z,99406.75
2022-09-09T10:13:20.286Z,99400.34
2022-09-09T10:15:41.711Z,99402.78
2022-09-09T10:18:17.462Z,99397.94
2022-09-09T10:20:35.977Z,99399.34
2022-09-09T10:22:45.166Z,99396.94
2022-09-09T10:25:04.090Z,99397.28
2022-09-09T10:27:31.413Z,99397.28
2022-09-09T10:30:13.458Z,99394.19
2022-09-09T10:32:57.229Z,99400.19
2022-09-09T10:35:04.143Z,99394.53
2022-09-09T10:37:24.678Z,99397.28
2022-09-09T10:39:42.188Z,99400.03
2022-09-09T10:41:45.060Z,99391.75
2022-09-09T10:44:02.242Z,99399.34
2022-09-09T10:46:16.465Z,99402.78
2022-09-09T10:48:44.516Z,99399.69
2022-09-09T10:51:18.962Z,99395.72
2022-09-09T10:53:37.898Z,99399.72
2022-09-09T10:55:46.422Z,99401.81
2022-09-09T10:57:51.251Z,99392.34
2022-09-09T11:00:01.079Z,99402.84
2022-09-09T11:02:20.480Z,99397.66
2022-09-09T11:04:26.980Z,99397.00
2022-09-09T11:06:40.088Z,99399.25
2022-09-09T11:08:43.380Z,99394.75
2022-09-09T11:10:56.587Z,99403.50
2022-09-09T11:13:07.121Z,99401.94
2022-09-09T11:15:27.300Z,99400.03
2022-09-09T11:17:45.635Z,99397.59
2022-09-09T11:19:48.274Z,99397.44
2022-09-09T11:21:52.380Z,99401.22
2022-09-09T11:24:00.552Z,99403.28
2022-09-09T11:26:06.081Z,99395.34
2022-09-09T11:28:33.621Z,99402.22
2022-09-09T11:31:12.695Z,99396.56
2022-09-09T11:33:33.904Z,99391.06
2022-09-09T11:36:07.422Z,99391.41
2022-09-09T11:38:19.527Z,99389.66
2022-09-09T11:40:31.967Z,99395.00
2022-09-09T11:42:34.162Z,99387.75
2022-09-09T11:46:43.704Z,99402.22
2022-09-09T11:48:47.447Z,99395.84
2022-09-09T11:51:02.030Z,99389.28
2022-09-09T11:53:22.239Z,99397.69
2022-09-09T11:55:35.922Z,99401.84
2022-09-09T11:57:38.752Z,99401.50
2022-09-09T11:59:53.491Z,99391.31
2022-09-09T12:02:33.779Z,99389.28
2022-09-09T12:04:45.805Z,99395.00
2022-09-09T12:06:53.623Z,99387.94
2022-09-09T12:09:16.935Z,99390.50
2022-09-09T12:11:30.286Z,99391.91
2022-09-09T12:13:35.425Z,99373.81
2022-09-09T12:15:50.630Z,99378.75
2022-09-09T12:17:57.175Z,99379.31
2022-09-09T12:20:08.438Z,99374.81
2022-09-09T12:22:18.629Z,99368.66
2022-09-09T12:24:32.323Z,99361.09
2022-09-09T12:26:45.845Z,99370.72
2022-09-09T12:28:57.275Z,99360.44
2022-09-09T12:31:19.250Z,99358.94
2022-09-09T12:33:23.069Z,99361.00
2022-09-09T12:35:30.170Z,99363.06
2022-09-09T12:37:58.370Z,99348.06
2022-09-09T12:40:04.412Z,99364.94
2022-09-09T12:42:06.897Z,99347.03
2022-09-09T12:44:12.070Z,99359.78
2022-09-09T12:46:33.016Z,99353.25
2022-09-09T12:48:40.082Z,99351.84
2022-09-09T12:50:49.641Z,99355.47
2022-09-09T12:52:54.916Z,99349.63
2022-09-09T12:55:02.571Z,99348.59
2022-09-09T12:57:13.460Z,99359.78
2022-09-09T12:59:37.179Z,99353.41
2022-09-09T13:01:39.358Z,99353.75
2022-09-09T13:03:48.390Z,99335.84
2022-09-09T13:05:51.061Z,99335.63
2022-09-09T13:07:53.373Z,99325.97
2022-09-09T13:09:55.169Z,99330.66
2022-09-09T13:11:59.242Z,99330.47
2022-09-09T13:14:01.600Z,99322.50
2022-09-09T13:16:05.751Z,99324.97
2022-09-09T13:18:14.176Z,99320.66
2022-09-09T13:20:20.953Z,99326.31
2022-09-09T13:22:41.701Z,99324.09
2022-09-09T13:24:44.123Z,99322.53
2022-09-09T13:26:57.477Z,99325.81
2022-09-09T13:29:19.017Z,99323.25
2022-09-09T13:31:37.595Z,99318.06
2022-09-09T13:33:41.048Z,99324.25
2022-09-09T13:35:54.144Z,99315.63
2022-09-09T13:37:56.326Z,99313.94
2022-09-09T13:39:58.982Z,99311.31
2022-09-09T13:42:02.194Z,99322.72
2022-09-09T13:44:05.570Z,99321.50
2022-09-09T13:46:25.373Z,99329.97
2022-09-09T13:48:27.375Z,99330.31
2022-09-09T13:50:30.740Z,99349.44
2022-09-09T13:52:33.056Z,99355.13
2022-09-09T13:54:34.838Z,99337.19
2022-09-09T13:56:38.202Z,99335.41
2022-09-09T13:58:40.049Z,99319.88
2022-09-09T14:00:41.840Z,99311.91
2022-09-09T14:02:45.173Z,99318.13
2022-09-09T14:04:46.913Z,99321.56
2022-09-09T14:06:50.426Z,99320.88
2022-09-09T14:08:53.111Z,99322.63
2022-09-09T14:10:56.961Z,99313.81
2022-09-09T14:12:58.772Z,99316.75
2022-09-09T14:15:03.869Z,99320.16
2022-09-09T14:17:08.006Z,99318.81
2022-09-09T14:19:10.938Z,99323.47
2022-09-09T14:21:13.348Z,99322.63
2022-09-09T14:23:16.672Z,99335.56
2022-09-09T14:25:18.428Z,99333.66
2022-09-09T14:27:21.060Z,99325.19
2022-09-09T14:29:22.976Z,99326.59
2022-09-09T14:31:25.459Z,99326.09
2022-09-09T14:33:27.657Z,99329.91
2022-09-09T14:35:29.371Z,99323.69
2022-09-09T14:37:32.244Z,99320.94
2022-09-09T14:39:34.190Z,99314.38
2022-09-09T14:41:35.991Z,99325.25
2022-09-09T14:43:41.351Z,99326.31
2022-09-09T14:45:44.460Z,99324.06
2022-09-09T14:47:46.289Z,99324.91
2022-09-09T14:49:51.017Z,99325.28
2022-09-09T14:51:52.822Z,99328.75
2022-09-09T14:54:00.338Z,99330.16
2022-09-09T14:56:09.497Z,99320.31
2022-09-09T14:58:11.658Z,99343.03
2022-09-09T15:00:14.339Z,99335.47
2022-09-09T15:02:16.099Z,99341.00
2022-09-09T15:04:18.342Z,99348.25
2022-09-09T15:06:21.491Z,99339.97
2022-09-09T15:08:23.196Z,99332.38
2022-09-09T15:10:25.487Z,99342.38
2022-09-09T15:12:28.014Z,99336.31
2022-09-09T15:14:29.691Z,99332.31
2022-09-09T15:16:33.256Z,99331.00
2022-09-09T15:18:37.332Z,99335.63
2022-09-09T15:20:40.353Z,99326.84
2022-09-09T15:22:42.537Z,99326.50
2022-09-09T15:24:44.669Z,99324.78
2022-09-09T15:26:46.774Z,99325.84
2022-09-09T15:28:50.754Z,99317.72
2022-09-09T15:30:54.137Z,99328.59
2022-09-09T15:32:55.973Z,99326.13
2022-09-09T15:34:57.850Z,99327.16
2022-09-09T15:37:02.379Z,99334.78
2022-09-09T15:39:07.259Z,99321.84
2022-09-09T15:41:09.074Z,99326.00
2022-09-09T15:43:11.858Z,99320.31
2022-09-09T15:45:13.753Z,99319.78
2022-09-09T15:47:16.204Z,99314.09
2022-09-09T15:49:26.399Z,99312.91
2022-09-09T15:51:42.370Z,99311.34
2022-09-09T15:53:45.995Z,99313.75
2022-09-09T15:55:47.748Z,99311.19
2022-09-09T15:57:49.621Z,99317.91
2022-09-09T15:59:51.747Z,99316.16
2022-09-09T16:01:53.671Z,99312.00
2022-09-09T16:03:55.545Z,99315.94
2022-09-09T16:05:57.258Z,99310.25
2022-09-09T16:07:59.372Z,99312.16
2022-09-09T16:10:01.033Z,99311.00
2022-09-09T16:12:07.456Z,99306.50
2022-09-09T16:14:09.204Z,99305.59
2022-09-09T16:16:13.405Z,99308.38
2022-09-09T16:18:16.505Z,99306.50
2022-09-09T16:20:19.971Z,99308.56
2022-09-09T16:22:22.887Z,99306.81
2022-09-09T16:24:25.036Z,99305.25
2022-09-09T16:26:30.311Z,99296.13
2022-09-09T16:28:34.790Z,99306.31
2022-09-09T16:30:40.390Z,99296.63
2022-09-09T16:32:42.483Z,99299.59
2022-09-09T16:34:44.251Z,99305.25
2022-09-09T16:36:47.423Z,99301.63
2022-09-09T16:38:52.840Z,99295.78
2022-09-09T16:41:01.227Z,99299.03
2022-09-09T16:43:03.739Z,99292.66
2022-09-09T16:45:06.548Z,99302.13
2022-09-09T16:47:10.545Z,99294.00
2022-09-09T16:49:15.734Z,99293.16
2022-09-09T16:51:25.539Z,99299.88
2022-09-09T16:53:27.997Z,99300.22
2022-09-09T16:55:30.986Z,99307.06
2022-09-09T16:57:32.872Z,99304.47
2022-09-09T16:59:34.697Z,99307.56
2022-09-09T17:01:39.096Z,99320.84
2022-09-09T17:03:42.086Z,99312.91
2022-09-09T17:05:45.704Z,99312.34
2022-09-09T17:07:47.512Z,99306.34
2022-09-09T17:09:49.963Z,99307.50
2022-09-09T17:11:53.328Z,99304.19
2022-09-09T17:13:55.927Z,99304.38
2022-09-09T17:16:02.270Z,99310.22
2022-09-09T17:18:04.698Z,99306.06
2022-09-09T17:20:08.163Z,99308.97
2022-09-09T17:22:17.879Z,99307.25
2022-09-09T17:24:19.911Z,99311.34
2022-09-09T17:26:23.682Z,99323.56
2022-09-09T17:28:28.397Z,99316.50
2022-09-09T17:30:31.473Z,99313.75
2022-09-09T17:32:33.424Z,99315.81
2022-09-09T17:34:35.784Z,99318.72
2022-09-09T17:36:40.671Z,99323.53
2022-09-09T17:38:45.870Z,99327.47
2022-09-09T17:40:48.603Z,99319.41
2022-09-09T17:42:50.381Z,99326.09
2022-09-09T17:44:52.364Z,99329.00
2022-09-09T17:46:55.578Z,99322.97
2022-09-09T17:49:00.070Z,99336.16
2022-09-09T17:51:01.824Z,99331.72
2022-09-09T17:53:03.665Z,99333.75
2022-09-09T17:55:06.287Z,99332.91
2022-09-09T17:57:08.265Z,99333.22
2022-09-09T17:59:12.132Z,99335.28
2022-09-09T18:01:23.349Z,99341.09
2022-09-09T18:03:25.798Z,99342.81
2022-09-09T18:05:27.635Z,99346.59
2022-09-09T18:07:31.424Z,99351.41
2022-09-09T18:09:33.757Z,99344.19
2022-09-09T18:11:42.808Z,99344.66
2022-09-09T18:13:49.398Z,99337.56
2022-09-09T18:15:51.230Z,99343.91
2022-09-09T18:17:53.512Z,99343.22
2022-09-09T18:19:55.241Z,99341.50
2022-09-09T18:22:00.229Z,99342.50
2022-09-09T18:24:06.908Z,99344.56
2022-09-09T18:26:11.100Z,99345.59
2022-09-09T18:28:13.671Z,99345.75
2022-09-09T18:30:15.507Z,99344.88
2022-09-09T18:32:20.030Z,99337.66
2022-09-09T18:34:23.292Z,99345.19
2022-09-09T18:36:37.376Z,99340.34
2022-09-09T18:38:39.196Z,99343.09
2022-09-09T18:40:41.102Z,99342.94
2022-09-09T18:42:43.367Z,99337.03
2022-09-09T18:44:45.086Z,99346.31
2022-09-09T18:46:48.493Z,99350.13
2022-09-09T18:48:50.949Z,99358.50
2022-09-09T18:50:53.383Z,99359.69
2022-09-09T18:52:55.085Z,99356.22
2022-09-09T18:54:56.858Z,99352.63
2022-09-09T18:57:02.824Z,99362.19
2022-09-09T18:59:06.746Z,99359.31
2022-09-09T19:01:12.608Z,99351.69
2022-09-09T19:03:14.905Z,99349.97
2022-09-09T19:05:16.674Z,99348.25
2022-09-09T19:07:19.087Z,99344.78
2022-09-09T19:09:20.849Z,99349.56
2022-09-09T19:11:24.351Z,99348.00
2022-09-09T19:13:27.212Z,99344.53
2022-09-09T19:15:29.800Z,99344.72
2022-09-09T19:17:32.463Z,99345.03
2022-09-09T19:19:35.201Z,99345.19
2022-09-09T19:21:38.796Z,99350.81
2022-09-09T19:23:41.549Z,99339.13
2022-09-09T19:25:43.920Z,99346.69
2022-09-09T19:27:45.933Z,99346.81
2022-09-09T19:29:48.340Z,99342.50
2022-09-09T19:32:29.230Z,99339.91
2022-09-09T19:34:14.488Z,99342.06
2022-09-09T19:36:18.308Z,99346.84
2022-09-09T19:38:20.072Z,99334.28
2022-09-09T19:40:23.069Z,99337.22
2022-09-09T19:42:25.618Z,99329.97
2022-09-09T19:44:27.326Z,99330.16
2022-09-09T19:46:31.046Z,99327.22
2022-09-09T19:48:34.664Z,99332.31
2022-09-09T19:50:37.074Z,99328.72
2022-09-09T19:52:38.909Z,99326.13
2022-09-09T19:54:40.752Z,99330.34
2022-09-09T19:56:44.265Z,99326.91
2022-09-09T19:58:47.688Z,99334.41
2022-09-09T20:00:49.385Z,99332.75
2022-09-09T20:03:15.346Z,99327.56
2022-09-09T20:05:14.088Z,99318.00
2022-09-09T20:07:16.016Z,99324.75
2022-09-09T20:09:18.535Z,99322.78
2022-09-09T20:11:20.597Z,99320.19
2022-09-09T20:13:22.288Z,99322.22
2022-09-09T20:15:24.518Z,99328.75
2022-09-09T20:17:26.226Z,99321.09
2022-09-09T20:19:28.134Z,99320.41
2022-09-09T20:21:33.088Z,99318.84
2022-09-09T20:23:35.256Z,99313.44
2022-09-09T20:25:38.078Z,99315.16
2022-09-09T20:27:39.815Z,99313.03
2022-09-09T20:29:41.562Z,99307.06
2022-09-09T20:31:44.851Z,99308.09
2022-09-09T20:33:47.741Z,99302.72
2022-09-09T20:35:49.692Z,99303.91
2022-09-09T20:37:51.413Z,99305.66
2022-09-09T20:39:53.733Z,99310.28
2022-09-09T20:41:55.587Z,99307.53
2022-09-09T20:43:59.603Z,99301.31
2022-09-09T20:46:04.986Z,99301.16
2022-09-09T20:48:07.349Z,99297.75
2022-09-09T20:50:09.735Z,99302.25
2022-09-09T20:52:12.351Z,99303.28
2022-09-09T20:54:17.287Z,99300.44
2022-09-09T20:56:20.303Z,99300.16
2022-09-09T20:58:21.994Z,99302.78
2022-09-09T21:00:24.088Z,99313.78
2022-09-09T21:02:26.411Z,99302.66
2022-09-09T21:04:29.269Z,99299.44
2022-09-09T21:06:31.193Z,99308.25
2022-09-09T21:08:34.303Z,99302.59
2022-09-09T21:10:36.425Z,99302.59
2022-09-09T21:12:39.771Z,99300.72
2022-09-09T21:14:41.773Z,99306.22
2022-09-09T21:16:43.857Z,99306.91
2022-09-09T21:18:46.128Z,99308.25
2022-09-09T21:20:48.932Z,99295.84
2022-09-09T21:22:51.068Z,99294.56
2022-09-09T21:24:53.585Z,99294.56
2022-09-09T21:26:56.730Z,99289.06
2022-09-09T21:28:58.798Z,99287.78
2022-09-09T21:31:00.877Z,99282.72
2022-09-09T21:33:04.277Z,99274.94
2022-09-09T21:35:07.470Z,99281.47
2022-09-09T21:37:09.741Z,99273.66
2022-09-09T21:39:11.755Z,99274.13
2022-09-09T21:41:15.592Z,99276.88
2022-09-09T21:43:19.442Z,99265.34
2022-09-09T21:45:21.465Z,99269.66
2022-09-09T21:47:23.546Z,99267.84
2022-09-09T21:49:27.711Z,99266.38
2022-09-09T21:51:30.412Z,99271.00
2022-09-09T21:53:33.514Z,99267.25
2022-09-09T21:55:41.849Z,99264.28
2022-09-09T21:57:43.992Z,99269.16
2022-09-09T21:59:46.301Z,99262.38
2022-09-09T22:01:50.372Z,99265.84
2022-09-09T22:03:52.511Z,99265.41
2022-09-09T22:05:54.712Z,99265.97
2022-09-09T22:07:56.877Z,99268.56
2022-09-09T22:09:59.364Z,99268.28
2022-09-09T22:12:01.630Z,99272.59
2022-09-09T22:14:03.672Z,99271.56
2022-09-09T22:16:08.939Z,99278.09
2022-09-09T22:18:11.791Z,99269.84
2022-09-09T22:20:13.901Z,99271.75
2022-09-09T22:22:16.442Z,99274.47
2022-09-09T22:24:18.414Z,99280.09
2022-09-09T22:26:20.696Z,99275.66
2022-09-09T22:28:23.539Z,99272.91
2022-09-09T22:30:25.925Z,99270.28
2022-09-09T22:32:31.778Z,99263.09
2022-09-09T22:34:39.980Z,99256.47
2022-09-09T22:36:42.288Z,99259.03
2022-09-09T22:38:44.443Z,99268.41
2022-09-09T22:40:48.057Z,99268.59
2022-09-09T22:42:53.344Z,99265.25
2022-09-09T22:44:56.036Z,99250.69
2022-09-09T22:46:58.113Z,99251.56
2022-09-09T22:49:02.322Z,99249.41
2022-09-09T22:51:13.408Z,99247.28
2022-09-09T22:53:17.783Z,99242.34
2022-09-09T22:55:20.122Z,99248.69
2022-09-09T22:57:22.326Z,99254.34
2022-09-09T22:59:24.286Z,99249.28
2022-09-09T23:01:28.119Z,99236.88
2022-09-09T23:03:33.273Z,99238.88
2022-09-09T23:05:38.685Z,99250.56
2022-09-09T23:07:40.821Z,99244.38
2022-09-09T23:09:42.952Z,99238.19
2022-09-09T23:11:46.995Z,99238.19
2022-09-09T23:13:57.600Z,99231.13
2022-09-09T23:16:04.156Z,99239.19
2022-09-09T23:18:07.171Z,99241.94
2022-09-09T23:20:10.618Z,99239.19
2022-09-09T23:22:15.323Z,99236.44
2022-09-09T23:24:18.171Z,99238.19
2022-09-09T23:26:21.101Z,99236.63
2022-09-09T23:28:23.181Z,99231.41
2022-09-09T23:30:31.757Z,99241.50
2022-09-09T23:32:34.336Z,99235.16
2022-09-09T23:34:40.202Z,99236.03
2022-09-09T23:36:42.441Z,99230.41
2022-09-09T23:38:44.545Z,99228.81
2022-09-09T23:40:47.270Z,99232.28
2022-09-09T23:42:49.265Z,99244.97
2022-09-09T23:44:52.339Z,99238.63
2022-09-09T23:46:54.659Z,99239.47
2022-09-09T23:48:58.217Z,99234.88
2022-09-09T23:51:00.588Z,99237.78
2022-09-09T23:53:03.402Z,99231.69
2022-09-09T23:55:08.924Z,99219.03
2022-09-09T23:57:13.778Z,99229.66
2022-09-09T23:59:16.075Z,99214.53
